Time;durP1;ratioP1;P1;durP2;ratioP2;P2;SDS_P1;SDS_P2;PMS_P1;PMS_P2;Temp;Humidity;BMP_temperature;BMP_pressure;BME280_temperature;BME280_humidity;BME280_pressure;Samples;Min_cycle;Max_cycle;Signal;HPM_P1;HPM_P2
2021/04/18 00:03:00;;;;;;;1.73;1.02;;;17.60;56.70;;;;;;10496489;28;20123;-58
2021/04/18 00:08:03;;;;;;;3.55;1.25;;;17.50;57.20;;;;;;10477931;28;20503;-58
2021/04/18 00:13:06;;;;;;;3.00;0.80;;;17.60;56.60;;;;;;10478558;28;20032;-58
2021/04/18 00:18:07;;;;;;;1.60;0.80;;;17.60;56.60;;;;;;10496104;28;20075;-58
2021/04/18 00:23:08;;;;;;;3.38;1.05;;;17.60;56.40;;;;;;10495987;28;20495;-58
2021/04/18 00:28:10;;;;;;;1.83;0.85;;;17.60;56.40;;;;;;10502789;28;20029;-58
2021/04/18 00:33:11;;;;;;;3.42;1.10;;;17.60;56.40;;;;;;10503327;28;20032;-57
2021/04/18 00:38:12;;;;;;;2.25;0.90;;;17.60;56.30;;;;;;10503156;28;20536;-58
2021/04/18 00:43:13;;;;;;;2.28;1.20;;;17.60;56.30;;;;;;10503139;28;20560;-58
2021/04/18 00:48:13;;;;;;;4.78;1.20;;;17.60;56.20;;;;;;10503343;28;20024;-58
2021/04/18 00:53:14;;;;;;;2.05;0.95;;;17.60;56.30;;;;;;10502480;28;20477;-58
2021/04/18 00:58:15;;;;;;;2.30;1.13;;;17.60;56.20;;;;;;10502377;28;20029;-57
2021/04/18 01:03:15;;;;;;;3.40;0.95;;;17.60;56.80;;;;;;10497740;28;20100;-58
2021/04/18 01:08:16;;;;;;;1.25;0.82;;;17.60;56.20;;;;;;10502809;28;20036;-58
2021/04/18 01:13:17;;;;;;;2.58;0.90;;;17.60;56.10;;;;;;10472923;28;20107;-58
2021/04/18 01:18:18;;;;;;;2.97;0.98;;;17.60;56.10;;;;;;10501845;28;20044;-58
2021/04/18 01:23:19;;;;;;;3.58;1.65;;;17.60;56.10;;;;;;10476625;28;20480;-58
2021/04/18 01:28:19;;;;;;;1.83;1.08;;;17.60;56.00;;;;;;10500158;28;20074;-58
2021/04/18 01:33:21;;;;;;;1.80;0.77;;;17.60;56.00;;;;;;10501403;28;20031;-57
2021/04/18 01:38:22;;;;;;;1.75;1.00;;;17.60;55.90;;;;;;10482806;28;20029;-58
2021/04/18 01:43:23;;;;;;;1.58;0.77;;;17.60;55.90;;;;;;10483000;28;20377;-58
2021/04/18 01:48:24;;;;;;;1.17;0.70;;;17.60;55.90;;;;;;10500959;28;20045;-58
2021/04/18 01:53:25;;;;;;;2.33;0.90;;;17.60;55.90;;;;;;10500320;28;20024;-58
2021/04/18 01:58:26;;;;;;;1.38;0.80;;;17.60;55.90;;;;;;10500286;28;20074;-58
2021/04/18 02:03:26;;;;;;;2.08;0.90;;;17.60;55.70;;;;;;10500291;28;20031;-58
2021/04/18 02:08:27;;;;;;;2.38;1.05;;;17.60;55.70;;;;;;10499716;28;20441;-58
2021/04/18 02:13:30;;;;;;;2.10;0.75;;;17.60;55.70;;;;;;10481740;28;20038;-58
2021/04/18 02:18:31;;;;;;;1.77;1.00;;;17.70;55.80;;;;;;10499644;28;20067;-58
2021/04/18 02:23:32;;;;;;;1.58;0.77;;;17.60;55.70;;;;;;10475579;28;20122;-58
2021/04/18 02:28:33;;;;;;;1.50;0.90;;;17.60;55.70;;;;;;10498635;28;20149;-58
2021/04/18 02:33:33;;;;;;;1.70;0.90;;;17.60;55.70;;;;;;10498887;28;20117;-58
2021/04/18 02:38:34;;;;;;;1.20;0.50;;;17.60;55.70;;;;;;10498548;28;20043;-56
2021/04/18 02:43:35;;;;;;;1.80;1.00;;;17.60;55.70;;;;;;10480633;28;20129;-58
2021/04/18 02:48:35;;;;;;;2.33;1.00;;;17.60;55.60;;;;;;10497089;28;20451;-58
2021/04/18 02:53:36;;;;;;;1.42;0.73;;;17.60;55.60;;;;;;10497989;28;20055;-58
2021/04/18 02:58:37;;;;;;;1.60;0.80;;;17.60;55.70;;;;;;10497775;28;20028;-58
2021/04/18 03:03:38;;;;;;;1.67;0.90;;;17.60;55.60;;;;;;10497454;28;20039;-58
2021/04/18 03:08:38;;;;;;;1.58;0.60;;;17.60;55.40;;;;;;10497341;28;20554;-57
2021/04/18 03:13:39;;;;;;;2.58;1.15;;;17.60;55.40;;;;;;10497143;28;20524;-58
2021/04/18 03:18:40;;;;;;;1.30;0.70;;;17.60;55.40;;;;;;10497342;28;20025;-58
2021/04/18 03:23:41;;;;;;;2.95;1.27;;;17.60;55.40;;;;;;10497060;28;20032;-57
2021/04/18 03:28:42;;;;;;;1.85;0.70;;;17.60;55.40;;;;;;10496645;28;20032;-57
2021/04/18 03:33:42;;;;;;;3.47;1.08;;;17.60;55.30;;;;;;10478877;28;20366;-57
2021/04/18 03:38:43;;;;;;;1.63;0.73;;;17.60;55.20;;;;;;10496556;28;20033;-57
2021/04/18 03:43:44;;;;;;;2.95;1.15;;;17.60;55.80;;;;;;10478917;28;20045;-58
2021/04/18 03:48:44;;;;;;;2.50;0.98;;;17.60;55.20;;;;;;10496398;28;20119;-56
2021/04/18 03:53:45;;;;;;;2.15;1.00;;;17.60;55.10;;;;;;10496658;28;20104;-57
2021/04/18 03:58:46;;;;;;;1.48;0.90;;;17.60;55.10;;;;;;10489910;28;20029;-57
2021/04/18 04:03:47;;;;;;;2.60;0.82;;;17.60;55.10;;;;;;10498155;28;20423;-58
2021/04/18 04:08:48;;;;;;;1.30;0.75;;;17.60;55.10;;;;;;10497730;28;20090;-57
2021/04/18 04:13:48;;;;;;;1.20;0.70;;;17.60;55.10;;;;;;10497737;28;20047;-57
2021/04/18 04:18:49;;;;;;;2.28;1.02;;;17.60;55.20;;;;;;10497159;28;20032;-58
2021/04/18 04:23:50;;;;;;;1.63;0.73;;;17.60;55.10;;;;;;10497022;28;20032;-57
2021/04/18 04:28:51;;;;;;;2.03;1.10;;;17.60;55.00;;;;;;10476268;28;20081;-58
2021/04/18 04:33:51;;;;;;;1.25;0.90;;;17.60;55.00;;;;;;10494105;28;20037;-58
2021/04/18 04:38:52;;;;;;;1.35;0.88;;;17.60;55.00;;;;;;10496267;28;20030;-58
2021/04/18 04:43:53;;;;;;;1.55;0.85;;;17.60;55.50;;;;;;10496010;28;20124;-58
2021/04/18 04:48:54;;;;;;;1.98;1.13;;;17.60;54.90;;;;;;10496202;28;20034;-58
2021/04/18 04:53:54;;;;;;;2.60;1.25;;;17.60;54.90;;;;;;10490784;28;20044;-58
2021/04/18 04:58:56;;;;;;;1.77;0.90;;;17.60;54.90;;;;;;10501603;28;20024;-58
2021/04/18 05:03:56;;;;;;;1.58;0.60;;;17.60;54.90;;;;;;10502253;28;20025;-57
2021/04/18 05:08:57;;;;;;;5.03;1.35;;;17.60;54.90;;;;;;10484183;28;20376;-57
2021/04/18 05:13:58;;;;;;;3.85;0.90;;;17.70;56.50;;;;;;10501037;28;20040;-56
2021/04/18 05:18:59;;;;;;;3.72;1.15;;;17.60;57.70;;;;;;10501947;28;20048;-58
2021/04/18 05:24:00;;;;;;;5.97;1.15;;;17.70;57.10;;;;;;10501708;28;20032;-57
2021/04/18 05:29:00;;;;;;;10.52;1.45;;;17.70;57.30;;;;;;10501753;28;20035;-56
2021/04/18 05:34:01;;;;;;;14.45;1.67;;;17.70;57.10;;;;;;10501296;28;20024;-58
2021/04/18 05:39:07;;;;;;;8.20;2.33;;;17.70;57.00;;;;;;10500818;28;20036;-59
2021/04/18 05:44:13;;;;;;;7.43;1.48;;;17.60;57.00;;;;;;10500852;28;20459;-57
2021/04/18 05:49:14;;;;;;;9.50;1.75;;;17.60;57.10;;;;;;10483546;28;20482;-58
2021/04/18 05:54:15;;;;;;;9.55;2.40;;;17.60;57.10;;;;;;10500421;28;20029;-57
2021/04/18 05:59:16;;;;;;;13.77;1.98;;;17.50;56.90;;;;;;10499939;28;20067;-57
2021/04/18 06:04:16;;;;;;;9.95;2.00;;;17.50;56.70;;;;;;10500348;28;20062;-57
2021/04/18 06:09:17;;;;;;;6.90;1.77;;;17.50;56.60;;;;;;10499642;28;20358;-57
2021/04/18 06:14:18;;;;;;;12.90;2.13;;;17.50;56.70;;;;;;10499577;28;20111;-57
2021/04/18 06:19:19;;;;;;;12.77;2.08;;;17.50;56.80;;;;;;10499259;28;20076;-58
2021/04/18 06:24:19;;;;;;;9.30;1.90;;;17.50;56.90;;;;;;10499280;28;20355;-57
2021/04/18 06:29:20;;;;;;;14.80;3.08;;;17.50;56.90;;;;;;10498600;28;20148;-58
2021/04/18 06:34:23;;;;;;;11.32;2.03;;;17.60;57.10;;;;;;10498926;28;20096;-57
2021/04/18 06:39:23;;;;;;;10.85;2.72;;;17.50;57.10;;;;;;10498270;28;20030;-58
2021/04/18 06:44:24;;;;;;;18.08;2.22;;;17.50;57.30;;;;;;10480581;28;20111;-57
2021/04/18 06:49:29;;;;;;;14.48;3.17;;;17.50;57.40;;;;;;10479314;28;20037;-56
2021/04/18 06:54:29;;;;;;;8.18;1.88;;;17.40;57.70;;;;;;10476624;28;20029;-57
2021/04/18 06:59:34;;;;;;;10.50;2.28;;;17.50;57.40;;;;;;10497528;28;20437;-57
2021/04/18 07:04:35;;;;;;;15.10;3.42;;;17.50;57.90;;;;;;10497337;28;20480;-55
2021/04/18 07:09:44;;;;;;;16.42;3.33;;;17.50;59.10;;;;;;10496240;28;20024;-56
2021/04/18 07:14:45;;;;;;;15.05;2.97;;;17.50;58.80;;;;;;10496486;28;20111;-54
2021/04/18 07:19:51;;;;;;;14.15;2.90;;;17.50;57.90;;;;;;10496107;28;20401;-57
2021/04/18 07:24:55;;;;;;;14.00;2.65;;;17.50;57.70;;;;;;10496917;28;20417;-57
2021/04/18 07:29:59;;;;;;;26.17;3.67;;;17.40;58.00;;;;;;10496515;28;20493;-57
2021/04/18 07:35:00;;;;;;;14.63;3.30;;;17.40;58.70;;;;;;10496293;28;20366;-56
2021/04/18 07:40:05;;;;;;;21.10;3.00;;;17.40;58.30;;;;;;10478630;28;20079;-58
2021/04/18 07:45:19;;;;;;;23.13;4.03;;;17.30;59.00;;;;;;10477766;28;20028;-57
2021/04/18 07:50:22;;;;;;;20.55;4.65;;;17.30;59.30;;;;;;10496984;28;20478;-59
2021/04/18 07:55:22;;;;;;;18.00;3.30;;;17.30;59.20;;;;;;10478246;28;20064;-59
2021/04/18 08:00:24;;;;;;;13.68;3.13;;;17.30;58.70;;;;;;10494699;28;20028;-59
2021/04/18 08:05:30;;;;;;;25.20;4.70;;;17.30;59.00;;;;;;10496218;28;20032;-59
2021/04/18 08:10:46;;;;;;;17.08;3.15;;;17.30;60.10;;;;;;10496299;28;20032;-54
2021/04/18 08:15:54;;;;;;;21.15;4.07;;;17.40;60.40;;;;;;10494853;28;20033;-56
2021/04/18 08:20:55;;;;;;;17.88;2.90;;;17.30;59.70;;;;;;10495099;28;20069;-56
2021/04/18 08:26:15;;;;;;;16.77;4.93;;;17.30;59.20;;;;;;10476806;28;20078;-56
2021/04/18 08:31:15;;;;;;;9.70;3.33;;;17.20;58.90;;;;;;10493951;28;20162;-56
2021/04/18 08:36:26;;;;;;;23.23;2.97;;;17.20;58.80;;;;;;10475177;28;20154;-56
2021/04/18 08:41:42;;;;;;;15.30;2.90;;;17.20;58.80;;;;;;10486697;28;20117;-56
2021/04/18 08:46:44;;;;;;;16.38;3.28;;;17.20;58.80;;;;;;10477101;28;20029;-56
2021/04/18 08:51:45;;;;;;;9.80;3.08;;;17.20;58.80;;;;;;10482674;28;20024;-56
2021/04/18 08:56:59;;;;;;;9.55;2.40;;;17.20;58.70;;;;;;10500371;28;20071;-56
2021/04/18 09:02:07;;;;;;;9.02;2.80;;;17.20;58.70;;;;;;10483067;28;20082;-56
2021/04/18 09:07:12;;;;;;;13.82;3.00;;;17.20;58.70;;;;;;10483996;28;20405;-56
2021/04/18 09:12:16;;;;;;;13.23;2.33;;;17.20;58.70;;;;;;10500893;28;20032;-56
2021/04/18 09:17:20;;;;;;;9.07;2.00;;;17.20;58.60;;;;;;10500979;28;20120;-58
2021/04/18 09:22:34;;;;;;;8.60;2.20;;;17.20;58.50;;;;;;10498669;28;20473;-59
2021/04/18 09:27:37;;;;;;;10.25;2.00;;;17.20;58.50;;;;;;10500650;28;20035;-59
2021/04/18 09:32:45;;;;;;;6.80;1.95;;;17.20;58.30;;;;;;10500406;28;20051;-61
2021/04/18 09:38:05;;;;;;;11.13;3.78;;;17.20;58.10;;;;;;10482822;28;20040;-59
2021/04/18 09:43:07;;;;;;;8.65;2.47;;;17.20;58.00;;;;;;10500655;28;20052;-57
2021/04/18 09:48:18;;;;;;;7.43;1.83;;;17.20;57.90;;;;;;10500035;28;20028;-58
2021/04/18 09:53:25;;;;;;;8.73;1.73;;;17.30;58.10;;;;;;10500446;28;20034;-58
2021/04/18 09:58:32;;;;;;;8.40;2.17;;;17.30;58.00;;;;;;10483044;28;20100;-54
2021/04/18 10:03:38;;;;;;;5.07;1.98;;;17.30;57.90;;;;;;10499930;28;20024;-57
2021/04/18 10:08:40;;;;;;;9.95;2.88;;;17.30;57.70;;;;;;10499868;28;20032;-57
2021/04/18 10:13:58;;;;;;;11.20;2.95;;;17.30;57.00;;;;;;10481285;28;20024;-56
2021/04/18 10:19:15;;;;;;;10.15;2.60;;;17.30;57.00;;;;;;10494872;28;20032;-58
2021/04/18 10:24:44;;;;;;;10.80;2.65;;;17.30;57.00;;;;;;10498802;28;20025;-57
2021/04/18 10:29:46;;;;;;;14.18;2.97;;;17.30;57.30;;;;;;10478353;28;20437;-59
2021/04/18 10:34:49;;;;;;;9.15;3.00;;;17.40;57.70;;;;;;10508199;28;20098;-56
2021/04/18 10:39:50;;;;;;;28.40;3.67;;;17.40;57.60;;;;;;10496953;28;20366;-58
2021/04/18 10:44:51;;;;;;;7.93;2.60;;;17.40;58.20;;;;;;10496899;28;20036;-58
2021/04/18 10:49:52;;;;;;;9.95;2.85;;;17.40;57.60;;;;;;10495302;28;20043;-57
2021/04/18 10:54:52;;;;;;;8.00;2.20;;;17.40;57.40;;;;;;10471716;28;20123;-57
2021/04/18 10:59:53;;;;;;;7.15;2.22;;;17.40;57.20;;;;;;10477907;28;20060;-58
2021/04/18 11:04:54;;;;;;;7.72;2.63;;;17.50;57.00;;;;;;10468171;28;20036;-58
2021/04/18 11:09:55;;;;;;;10.70;2.20;;;17.50;56.90;;;;;;10495250;28;20104;-58
2021/04/18 11:14:55;;;;;;;8.77;2.30;;;17.40;57.00;;;;;;10496142;28;20534;-58
2021/04/18 11:19:57;;;;;;;7.80;2.95;;;17.40;57.10;;;;;;10494797;28;20123;-58
2021/04/18 11:25:00;;;;;;;12.90;3.13;;;17.40;57.10;;;;;;10478595;28;20497;-58
2021/04/18 11:30:14;;;;;;;6.18;2.13;;;17.40;57.30;;;;;;10467931;28;20040;-59
2021/04/18 11:35:15;;;;;;;10.43;2.03;;;17.40;57.30;;;;;;10496710;28;20029;-58
2021/04/18 11:40:16;;;;;;;5.05;1.65;;;17.50;57.30;;;;;;10478804;28;20048;-58
2021/04/18 11:45:16;;;;;;;9.88;2.40;;;17.50;57.20;;;;;;10478438;28;20050;-59
2021/04/18 11:50:17;;;;;;;5.35;2.30;;;17.60;57.20;;;;;;10496302;28;20143;-59
2021/04/18 11:55:20;;;;;;;5.70;1.60;;;17.50;57.10;;;;;;10495974;28;20043;-59
2021/04/18 12:00:21;;;;;;;5.18;1.63;;;17.50;57.20;;;;;;10482860;28;20485;-58
2021/04/18 12:05:22;;;;;;;5.07;1.20;;;17.50;57.30;;;;;;10495779;28;20044;-58
2021/04/18 12:10:23;;;;;;;5.40;2.50;;;17.60;57.30;;;;;;10496004;28;20039;-58
2021/04/18 12:15:24;;;;;;;4.32;1.65;;;17.60;57.30;;;;;;10495755;28;20020;-58
2021/04/18 12:20:24;;;;;;;6.10;1.55;;;17.60;57.10;;;;;;10498417;28;20043;-59
2021/04/18 12:25:25;;;;;;;9.68;2.28;;;17.70;57.20;;;;;;10503667;28;20151;-58
2021/04/18 12:30:26;;;;;;;6.15;1.80;;;17.70;57.10;;;;;;10485199;28;20040;-58
2021/04/18 12:35:26;;;;;;;4.68;1.20;;;17.70;57.10;;;;;;10503738;28;20481;-58
2021/04/18 12:40:27;;;;;;;3.13;1.10;;;17.70;57.10;;;;;;10513732;28;20077;-58
2021/04/18 12:45:28;;;;;;;4.15;1.63;;;17.80;57.10;;;;;;10505336;28;20031;-59
2021/04/18 12:50:29;;;;;;;5.57;1.67;;;17.80;57.00;;;;;;10484191;28;20032;-59
2021/04/18 12:55:30;;;;;;;8.10;1.77;;;17.70;57.10;;;;;;10500392;28;20032;-58
2021/04/18 13:00:31;;;;;;;5.72;2.45;;;17.70;57.20;;;;;;10501757;28;20029;-59
2021/04/18 13:05:31;;;;;;;4.25;1.63;;;17.70;57.20;;;;;;10502301;28;20507;-59
2021/04/18 13:10:32;;;;;;;5.68;1.90;;;17.60;57.20;;;;;;10501312;28;20035;-58
2021/04/18 13:15:33;;;;;;;3.22;1.30;;;17.60;57.30;;;;;;10501879;28;20550;-59
2021/04/18 13:20:33;;;;;;;4.90;1.10;;;17.60;57.40;;;;;;10482885;28;20123;-59
2021/04/18 13:25:34;;;;;;;5.78;2.03;;;17.50;57.40;;;;;;10487922;28;20366;-59
2021/04/18 13:30:35;;;;;;;4.38;1.85;;;17.50;57.40;;;;;;10482476;28;20554;-59
2021/04/18 13:35:38;;;;;;;4.47;1.25;;;17.50;57.50;;;;;;10500849;28;20029;-58
2021/04/18 13:40:42;;;;;;;3.72;1.20;;;17.50;57.60;;;;;;10500402;28;20434;-59
2021/04/18 13:45:43;;;;;;;3.47;0.93;;;17.60;58.20;;;;;;10500414;28;20036;-59
2021/04/18 13:50:43;;;;;;;3.03;1.30;;;17.70;57.50;;;;;;10499256;28;20043;-58
2021/04/18 13:55:44;;;;;;;2.92;1.30;;;17.70;57.40;;;;;;10500132;28;20017;-58
2021/04/18 14:00:45;;;;;;;3.25;1.27;;;17.60;57.40;;;;;;10499734;28;20067;-58
2021/04/18 14:05:45;;;;;;;2.42;1.02;;;17.70;57.50;;;;;;10499738;28;20039;-59
2021/04/18 14:10:46;;;;;;;2.92;1.23;;;17.60;57.40;;;;;;10499183;28;20103;-58
2021/04/18 14:15:47;;;;;;;2.45;1.65;;;17.70;57.50;;;;;;10478576;28;20032;-59
2021/04/18 14:20:47;;;;;;;1.90;0.90;;;17.70;57.40;;;;;;10499127;28;20111;-58
2021/04/18 14:25:48;;;;;;;2.78;1.38;;;17.70;57.40;;;;;;10480791;28;20029;-58
2021/04/18 14:30:49;;;;;;;2.83;1.13;;;17.70;57.30;;;;;;10498578;28;20037;-58
2021/04/18 14:35:50;;;;;;;2.78;1.20;;;17.70;57.40;;;;;;10498262;28;20035;-58
2021/04/18 14:40:51;;;;;;;2.10;1.00;;;17.70;57.30;;;;;;10498008;28;20132;-58
2021/04/18 14:45:51;;;;;;;4.72;1.10;;;17.80;57.30;;;;;;10497044;28;20036;-59
2021/04/18 14:50:53;;;;;;;1.88;1.13;;;17.80;57.30;;;;;;10498084;28;20099;-58
2021/04/18 14:55:54;;;;;;;3.42;0.95;;;17.70;57.20;;;;;;10505051;28;20064;-59
2021/04/18 15:00:56;;;;;;;1.52;0.88;;;17.80;57.30;;;;;;10497444;28;20020;-58
2021/04/18 15:05:57;;;;;;;2.60;1.20;;;17.80;57.30;;;;;;10497426;28;20431;-58
2021/04/18 15:10:58;;;;;;;1.52;0.88;;;17.80;57.30;;;;;;10473083;28;20036;-58
2021/04/18 15:15:59;;;;;;;3.17;1.10;;;17.80;57.30;;;;;;10496805;28;20028;-58
2021/04/18 15:21:00;;;;;;;2.22;1.45;;;17.70;57.30;;;;;;10496903;28;20021;-58
2021/04/18 15:26:01;;;;;;;3.88;1.45;;;17.80;57.30;;;;;;10496527;28;20223;-58
2021/04/18 15:31:02;;;;;;;2.38;1.02;;;17.80;57.40;;;;;;10496829;28;20449;-59
2021/04/18 15:36:04;;;;;;;2.65;0.63;;;17.80;57.30;;;;;;10495305;28;20040;-59
2021/04/18 15:41:06;;;;;;;1.40;0.93;;;17.80;57.40;;;;;;10496237;28;20071;-58
2021/04/18 15:46:07;;;;;;;2.90;0.80;;;17.70;57.30;;;;;;10509537;28;20033;-58
2021/04/18 15:51:10;;;;;;;2.28;1.00;;;17.70;57.40;;;;;;10496911;28;20162;-58
2021/04/18 15:56:13;;;;;;;2.20;0.88;;;17.70;57.40;;;;;;10500360;28;20040;-58
2021/04/18 16:01:14;;;;;;;2.72;1.00;;;17.70;57.40;;;;;;10504664;28;20338;-58
2021/04/18 16:06:15;;;;;;;1.52;0.90;;;17.70;57.40;;;;;;10504265;28;20123;-58
2021/04/18 16:11:19;;;;;;;1.65;0.80;;;17.60;57.40;;;;;;10493642;28;20030;-59
2021/04/18 16:16:24;;;;;;;1.70;1.02;;;17.60;57.40;;;;;;10489422;28;20032;-58
2021/04/18 16:21:28;;;;;;;1.67;0.70;;;17.60;57.40;;;;;;10503979;28;20392;-58
2021/04/18 16:26:30;;;;;;;1.67;0.82;;;17.60;57.40;;;;;;10503278;28;20043;-58
2021/04/18 16:31:31;;;;;;;1.42;0.73;;;17.60;57.40;;;;;;10503656;28;20473;-58
2021/04/18 16:36:32;;;;;;;0.98;0.70;;;17.60;57.40;;;;;;10485108;28;20037;-58
2021/04/18 16:41:33;;;;;;;1.20;0.80;;;17.60;57.40;;;;;;10474479;28;20477;-57
2021/04/18 16:46:34;;;;;;;1.98;1.02;;;17.60;57.40;;;;;;10485220;28;20024;-59
2021/04/18 16:51:35;;;;;;;1.50;0.73;;;17.60;57.40;;;;;;10508072;28;20176;-59
2021/04/18 16:56:36;;;;;;;1.45;0.70;;;17.60;57.40;;;;;;10491519;28;20073;-58
2021/04/18 17:01:37;;;;;;;1.63;0.80;;;17.60;57.60;;;;;;10484775;28;20048;-58
2021/04/18 17:06:38;;;;;;;2.70;1.02;;;17.60;57.30;;;;;;10501018;28;20123;-58
2021/04/18 17:11:38;;;;;;;3.03;1.50;;;17.60;57.30;;;;;;10502055;28;20055;-59
2021/04/18 17:16:39;;;;;;;1.73;0.90;;;17.50;57.20;;;;;;10501547;28;20032;-58
2021/04/18 17:21:40;;;;;;;1.58;0.88;;;17.50;57.20;;;;;;10501342;28;20096;-59
2021/04/18 17:26:41;;;;;;;1.35;0.70;;;17.60;57.30;;;;;;10501291;28;20033;-58
2021/04/18 17:31:41;;;;;;;1.55;0.95;;;17.60;57.30;;;;;;10491610;28;20086;-59
2021/04/18 17:36:42;;;;;;;1.50;0.80;;;17.50;57.30;;;;;;10500467;28;20028;-59
2021/04/18 17:41:44;;;;;;;2.35;1.00;;;17.50;57.30;;;;;;10500917;28;20354;-59
2021/04/18 17:46:44;;;;;;;1.23;0.80;;;17.50;57.20;;;;;;10500767;28;20123;-59
2021/04/18 17:51:45;;;;;;;1.83;0.90;;;17.50;57.30;;;;;;10500420;28;20043;-58
2021/04/18 17:56:46;;;;;;;1.25;0.70;;;17.50;57.30;;;;;;10498892;28;20052;-59
2021/04/18 18:01:47;;;;;;;1.90;0.68;;;17.50;57.20;;;;;;10499434;28;20472;-60
2021/04/18 18:06:48;;;;;;;1.75;1.00;;;17.50;57.20;;;;;;10499067;28;20108;-57
2021/04/18 18:11:49;;;;;;;1.77;0.85;;;17.50;57.10;;;;;;10481293;28;20040;-60
2021/04/18 18:16:50;;;;;;;1.60;0.90;;;17.50;57.20;;;;;;10480476;28;20032;-58
2021/04/18 18:21:50;;;;;;;2.67;1.35;;;17.50;57.30;;;;;;10498940;28;20039;-59
2021/04/18 18:26:52;;;;;;;1.92;1.33;;;17.50;57.20;;;;;;10464060;28;20032;-58
2021/04/18 18:31:52;;;;;;;2.92;1.60;;;17.50;57.10;;;;;;10499169;28;20062;-58
2021/04/18 18:36:53;;;;;;;3.80;1.80;;;17.40;56.90;;;;;;10498348;28;20055;-58
2021/04/18 18:41:54;;;;;;;2.97;1.10;;;17.40;56.90;;;;;;10497649;28;20489;-59
2021/04/18 18:46:55;;;;;;;3.67;1.70;;;17.40;56.80;;;;;;10468941;28;20032;-58
2021/04/18 18:51:56;;;;;;;4.03;1.95;;;17.40;56.80;;;;;;10497173;28;20048;-59
2021/04/18 18:57:02;;;;;;;1.95;1.40;;;17.40;56.70;;;;;;10496710;28;20020;-59
2021/04/18 19:02:03;;;;;;;3.20;1.48;;;17.40;56.70;;;;;;10473830;28;20024;-58
2021/04/18 19:07:03;;;;;;;2.55;1.38;;;17.40;56.60;;;;;;10496786;28;20493;-59
2021/04/18 19:12:05;;;;;;;4.18;2.17;;;17.40;56.50;;;;;;10496148;28;20087;-58
2021/04/18 19:17:05;;;;;;;3.65;1.50;;;17.40;57.00;;;;;;10495812;28;20047;-60
2021/04/18 19:22:06;;;;;;;3.85;1.60;;;17.40;56.70;;;;;;10496004;28;20035;-61
2021/04/18 19:27:07;;;;;;;4.78;2.15;;;17.50;56.50;;;;;;10497276;28;20562;-60
2021/04/18 19:32:08;;;;;;;2.53;1.35;;;17.50;56.50;;;;;;10495867;28;20036;-61
2021/04/18 19:37:10;;;;;;;2.08;1.40;;;17.40;56.50;;;;;;10479283;28;20028;-61
2021/04/18 19:42:10;;;;;;;2.60;1.58;;;17.50;56.70;;;;;;10497283;28;20040;-61
2021/04/18 19:47:11;;;;;;;1.73;1.00;;;17.50;56.70;;;;;;10496512;28;20051;-60
2021/04/18 19:52:12;;;;;;;4.63;2.08;;;17.50;56.70;;;;;;10496375;28;20041;-60
2021/04/18 19:57:16;;;;;;;3.42;1.48;;;17.40;56.70;;;;;;10496701;28;20066;-61
2021/04/18 20:02:16;;;;;;;2.97;1.40;;;17.40;56.80;;;;;;10497245;28;20020;-61
2021/04/18 20:07:17;;;;;;;2.88;1.20;;;17.50;56.80;;;;;;10496580;28;20029;-61
2021/04/18 20:12:18;;;;;;;2.33;1.50;;;17.50;56.80;;;;;;10496373;28;20036;-61
2021/04/18 20:17:18;;;;;;;2.08;1.33;;;17.50;56.70;;;;;;10478117;28;20542;-60
2021/04/18 20:22:19;;;;;;;3.20;1.13;;;17.50;56.80;;;;;;10496349;28;20512;-61
2021/04/18 20:27:23;;;;;;;2.15;1.30;;;17.50;56.60;;;;;;10478035;28;20029;-61
2021/04/18 20:32:24;;;;;;;2.22;1.60;;;17.50;56.70;;;;;;10495914;28;20031;-61
2021/04/18 20:37:24;;;;;;;3.25;1.20;;;17.50;56.70;;;;;;10495632;28;20124;-61
2021/04/18 20:42:25;;;;;;;1.85;1.13;;;17.50;56.70;;;;;;10482188;28;20552;-61
2021/04/18 20:47:26;;;;;;;1.83;1.10;;;17.50;56.80;;;;;;10503378;28;20027;-61
2021/04/18 20:52:28;;;;;;;2.15;1.25;;;17.50;56.90;;;;;;10502879;28;20093;-61
2021/04/18 20:57:29;;;;;;;3.03;1.35;;;17.50;56.70;;;;;;10502852;28;20029;-61
2021/04/18 21:02:30;;;;;;;2.33;1.02;;;17.50;56.60;;;;;;10502739;28;20032;-60
2021/04/18 21:07:31;;;;;;;2.20;1.40;;;17.60;56.60;;;;;;10502312;28;20036;-61
2021/04/18 21:12:32;;;;;;;2.63;0.98;;;17.60;56.60;;;;;;10502654;28;20039;-60
2021/04/18 21:17:33;;;;;;;1.92;1.38;;;17.50;56.70;;;;;;10501961;28;20127;-60
2021/04/18 21:22:34;;;;;;;1.80;1.00;;;17.50;56.60;;;;;;10483884;28;20103;-61
2021/04/18 21:27:35;;;;;;;2.22;1.00;;;17.50;56.60;;;;;;10483572;28;20030;-61
2021/04/18 21:32:36;;;;;;;1.95;0.90;;;17.50;56.60;;;;;;10473503;28;20112;-61
2021/04/18 21:37:37;;;;;;;2.10;1.20;;;17.50;56.70;;;;;;10483607;28;20032;-61
2021/04/18 21:42:37;;;;;;;2.90;1.58;;;17.60;56.60;;;;;;10500960;28;20072;-61
2021/04/18 21:47:39;;;;;;;2.28;1.27;;;17.60;56.50;;;;;;10500902;28;20107;-61
2021/04/18 21:52:40;;;;;;;2.38;1.25;;;17.60;56.40;;;;;;10500043;28;20028;-60
2021/04/18 21:57:40;;;;;;;2.10;1.17;;;17.70;56.30;;;;;;10482640;28;20032;-61
2021/04/18 22:02:41;;;;;;;1.65;0.90;;;17.70;56.20;;;;;;10500152;28;20056;-60
2021/04/18 22:07:42;;;;;;;1.90;1.10;;;17.70;56.20;;;;;;10482274;28;20480;-60
2021/04/18 22:12:43;;;;;;;2.03;1.13;;;17.70;56.20;;;;;;10499867;28;20420;-61
2021/04/18 22:17:44;;;;;;;2.13;1.23;;;17.70;56.20;;;;;;10499825;28;20029;-61
2021/04/18 22:22:45;;;;;;;1.45;1.00;;;17.70;56.20;;;;;;10481706;28;20525;-60
2021/04/18 22:27:45;;;;;;;1.63;1.20;;;17.60;56.20;;;;;;10499105;28;20028;-61
2021/04/18 22:32:46;;;;;;;1.73;1.00;;;17.60;56.20;;;;;;10498862;28;20048;-61
2021/04/18 22:37:47;;;;;;;2.65;0.82;;;17.60;56.40;;;;;;10498859;28;20334;-61
2021/04/18 22:42:48;;;;;;;1.90;1.27;;;17.60;56.30;;;;;;10480654;28;20124;-61
2021/04/18 22:47:48;;;;;;;1.38;1.08;;;17.60;56.30;;;;;;10498475;28;20032;-61
2021/04/18 22:52:51;;;;;;;1.80;1.13;;;17.50;56.30;;;;;;10498266;28;20059;-60
2021/04/18 22:57:52;;;;;;;2.00;1.38;;;17.50;56.30;;;;;;10497968;28;20053;-61
2021/04/18 23:02:52;;;;;;;1.75;1.23;;;17.50;56.30;;;;;;10497824;28;20033;-61
2021/04/18 23:07:53;;;;;;;2.42;1.23;;;17.60;56.20;;;;;;10479448;28;20029;-61
2021/04/18 23:12:54;;;;;;;1.40;0.88;;;17.50;56.10;;;;;;10497601;28;20056;-60
2021/04/18 23:17:55;;;;;;;1.67;1.10;;;17.60;56.10;;;;;;10497410;28;20056;-60
2021/04/18 23:22:55;;;;;;;1.77;1.10;;;17.60;56.10;;;;;;10497221;28;20082;-60
2021/04/18 23:27:56;;;;;;;1.33;1.00;;;17.60;56.00;;;;;;10479336;28;20131;-60
2021/04/18 23:32:57;;;;;;;2.05;0.90;;;17.60;55.90;;;;;;10492547;28;20490;-61
2021/04/18 23:37:57;;;;;;;1.63;1.10;;;17.70;55.80;;;;;;10496873;28;20033;-61
2021/04/18 23:42:58;;;;;;;1.70;0.93;;;17.70;55.80;;;;;;10496850;28;20410;-61
2021/04/18 23:47:59;;;;;;;1.35;0.90;;;17.60;55.80;;;;;;10496946;28;20111;-61
2021/04/18 23:53:00;;;;;;;1.58;1.10;;;17.60;55.70;;;;;;10478798;28;20032;-60
2021/04/18 23:58:00;;;;;;;1.30;1.15;;;17.60;55.80;;;;;;10496735;28;20453;-60
